Champion, Canada
Current Conditions -  °F | °C
As of 2:00 PM on Tuesday 21 Oct 2014 (Local Time) from CYQL Reporting Station
Overcast Overcast  
Wind Chill: 55°   Ceiling: 7500
Heat Index: 55°   Visibility: 40mi
Dew Point: 41°   Wind: 13mph
Humidity: 58%   Direction: 230°SW
Pressure: 29.68"   Gusts: NA
Location:  50.22°N, 113.15°W
Report Text: CYQL 212000Z 23011KT 40SM OVC075 13/05 A2968 RMK AC8 SLP062 DENSITY ALT 3700FT
Loading
Personal Weather Stations






























Interactive Weather Map
Tropical Storm Tracking
New forecast layout! Learn more

10-Day Weather Forecast

Advertisements
Track Severe Weather on mobile